createdAt,value
2022-09-28T00:00:13.982Z,96083.28
2022-09-28T00:02:44.144Z,96082.56
2022-09-28T00:05:14.987Z,96086.06
2022-09-28T00:07:45.213Z,96080.78
2022-09-28T00:10:18.057Z,96076.50
2022-09-28T00:12:48.249Z,96074.28
2022-09-28T00:15:18.499Z,96073.47
2022-09-28T00:17:48.538Z,96074.47
2022-09-28T00:20:19.647Z,96067.19
2022-09-28T00:22:49.545Z,96056.63
2022-09-28T00:25:22.605Z,96063.19
2022-09-28T00:27:53.325Z,96062.66
2022-09-28T00:30:23.389Z,96060.88
2022-09-28T00:32:53.361Z,96056.38
2022-09-28T00:35:23.642Z,96055.09
2022-09-28T00:37:53.707Z,96052.91
2022-09-28T00:40:26.606Z,96057.41
2022-09-28T00:42:56.656Z,96047.31
2022-09-28T00:45:29.618Z,96050.28
2022-09-28T00:48:02.086Z,96054.59
2022-09-28T00:50:35.411Z,96045.53
2022-09-28T00:53:11.810Z,96049.34
2022-09-28T00:55:49.853Z,96051.41
2022-09-28T00:58:24.465Z,96044.88
2022-09-28T01:00:56.436Z,96046.63
2022-09-28T01:03:26.908Z,96041.88
2022-09-28T01:06:02.371Z,96047.41
2022-09-28T01:08:36.105Z,96044.38
2022-09-28T01:11:09.164Z,96046.66
2022-09-28T01:13:40.439Z,96047.16
2022-09-28T01:16:21.747Z,96045.38
2022-09-28T01:19:04.227Z,96051.16
2022-09-28T01:21:51.947Z,96046.13
2022-09-28T01:24:43.004Z,96044.84
2022-09-28T01:27:23.887Z,96036.84
2022-09-28T01:30:04.733Z,96035.31
2022-09-28T01:32:44.111Z,96034.84
2022-09-28T01:35:19.001Z,96029.78
2022-09-28T01:37:55.796Z,96021.00
2022-09-28T01:40:29.584Z,96021.75
2022-09-28T01:43:08.450Z,96023.47
2022-09-28T01:45:45.822Z,96022.69
2022-09-28T01:48:22.207Z,96029.00
2022-09-28T01:50:58.093Z,96022.69
2022-09-28T01:53:36.511Z,96020.19
2022-09-28T01:56:15.199Z,96014.13
2022-09-28T01:58:54.479Z,96010.06
2022-09-28T02:01:31.170Z,96009.28
2022-09-28T02:04:09.479Z,96005.78
2022-09-28T02:06:46.384Z,96004.50
2022-09-28T02:09:21.796Z,95998.69
2022-09-28T02:12:01.794Z,95993.91
2022-09-28T02:14:37.169Z,95986.63
2022-09-28T02:17:07.583Z,95976.53
2022-09-28T02:19:38.946Z,95979.81
2022-09-28T02:22:23.905Z,95979.81
2022-09-28T02:25:00.240Z,95968.06
2022-09-28T02:27:39.097Z,95964.84
2022-09-28T02:30:13.326Z,95970.66
2022-09-28T02:32:49.899Z,95962.09
2022-09-28T02:35:22.247Z,95956.81
2022-09-28T02:37:53.582Z,95961.63
2022-09-28T02:40:27.915Z,95955.81
2022-09-28T02:43:07.016Z,95954.81
2022-09-28T02:46:00.075Z,95954.09
2022-09-28T02:49:30.395Z,95957.78
2022-09-28T02:52:13.776Z,95959.31
2022-09-28T02:55:23.215Z,95960.88
2022-09-28T02:58:17.731Z,95963.91
2022-09-28T03:01:00.410Z,95967.97
2022-09-28T03:03:39.746Z,95973.75
2022-09-28T03:06:18.756Z,95977.56
2022-09-28T03:08:57.829Z,95973.06
2022-09-28T03:11:36.056Z,95965.28
2022-09-28T03:14:07.335Z,95973.56
2022-09-28T03:17:00.381Z,95964.53
2022-09-28T03:19:35.082Z,95968.06
2022-09-28T03:22:05.747Z,95960.28
2022-09-28T03:24:35.818Z,95954.78
2022-09-28T03:27:05.967Z,95946.47
2022-09-28T03:29:36.110Z,95939.94
2022-09-28T03:32:11.254Z,95919.88
2022-09-28T03:34:41.670Z,95915.88
2022-09-28T03:37:11.813Z,95924.09
2022-09-28T03:39:42.010Z,95918.88
2022-09-28T03:42:12.021Z,95912.34
2022-09-28T03:44:46.814Z,95921.38
2022-09-28T03:47:21.862Z,95919.09
2022-09-28T03:49:51.885Z,95919.31
2022-09-28T03:52:22.012Z,95918.25
2022-09-28T03:54:52.030Z,95918.78
2022-09-28T03:57:22.087Z,95929.28
2022-09-28T03:59:52.461Z,95928.03
2022-09-28T04:02:25.196Z,95918.06
2022-09-28T04:04:55.251Z,95895.66
2022-09-28T04:07:30.217Z,95896.13
2022-09-28T04:10:01.040Z,95890.38
2022-09-28T04:12:31.075Z,95877.75
2022-09-28T04:15:01.090Z,95873.25
2022-09-28T04:17:39.162Z,95877.75
2022-09-28T04:20:12.682Z,95871.75
2022-09-28T04:22:47.210Z,95870.75
2022-09-28T04:25:17.495Z,95861.72
2022-09-28T04:27:59.918Z,95856.19
2022-09-28T04:30:30.113Z,95846.19
2022-09-28T04:33:02.802Z,95848.22
2022-09-28T04:35:33.663Z,95842.69
2022-09-28T04:38:05.156Z,95845.97
2022-09-28T04:40:35.327Z,95847.91
2022-09-28T04:43:05.369Z,95844.94
2022-09-28T04:45:35.519Z,95834.88
2022-09-28T04:48:13.786Z,95838.69
2022-09-28T04:51:03.434Z,95831.69
2022-09-28T04:53:34.160Z,95836.94
2022-09-28T04:56:07.401Z,95830.47
2022-09-28T04:58:38.738Z,95823.44
2022-09-28T05:01:11.605Z,95832.44
2022-09-28T05:04:02.812Z,95823.38
2022-09-28T05:06:52.180Z,95819.88
2022-09-28T05:09:22.295Z,95816.88
2022-09-28T05:11:53.416Z,95814.41
2022-09-28T05:14:25.593Z,95818.63
2022-09-28T05:16:55.827Z,95808.63
2022-09-28T05:19:28.471Z,95807.63
2022-09-28T05:22:06.289Z,95800.34
2022-09-28T05:24:43.315Z,95787.78
2022-09-28T05:27:13.380Z,95786.00
2022-09-28T05:29:44.058Z,95775.16
2022-09-28T05:32:44.250Z,95763.03
2022-09-28T05:35:24.132Z,95755.22
2022-09-28T05:37:55.057Z,95751.66
2022-09-28T05:40:25.506Z,95755.19
2022-09-28T05:42:55.511Z,95747.59
2022-09-28T05:45:25.651Z,95750.13
2022-09-28T05:47:55.668Z,95746.53
2022-09-28T05:50:29.158Z,95751.72
2022-09-28T05:53:03.605Z,95747.25
2022-09-28T05:55:34.083Z,95744.66
2022-09-28T05:58:07.654Z,95732.06
2022-09-28T06:00:38.856Z,95739.13
2022-09-28T06:03:11.871Z,95748.69
2022-09-28T06:05:45.390Z,95747.00
2022-09-28T06:08:15.462Z,95735.38
2022-09-28T06:10:49.470Z,95727.78
2022-09-28T06:13:20.075Z,95729.16
2022-09-28T06:15:50.319Z,95727.94
2022-09-28T06:18:20.438Z,95729.25
2022-09-28T06:21:13.343Z,95721.03
2022-09-28T06:23:49.161Z,95728.59
2022-09-28T06:26:20.114Z,95735.66
2022-09-28T06:28:50.133Z,95736.41
2022-09-28T06:31:23.834Z,95729.06
2022-09-28T06:33:54.408Z,95733.16
2022-09-28T06:36:27.132Z,95725.13
2022-09-28T06:38:57.179Z,95731.63
2022-09-28T06:41:28.020Z,95739.22
2022-09-28T06:44:03.832Z,95739.44
2022-09-28T06:46:52.389Z,95735.72
2022-09-28T06:49:51.377Z,95738.22
2022-09-28T06:52:46.564Z,95746.47
2022-09-28T06:55:35.271Z,95754.59
2022-09-28T06:58:09.033Z,95765.28
2022-09-28T07:00:41.427Z,95754.22
2022-09-28T07:03:15.753Z,95753.75
2022-09-28T07:05:59.966Z,95754.09
2022-09-28T07:08:46.255Z,95745.53
2022-09-28T07:11:44.408Z,95737.03
2022-09-28T07:14:46.045Z,95744.47
2022-09-28T07:17:15.298Z,95747.19
2022-09-28T07:19:46.778Z,95741.88
2022-09-28T07:22:19.259Z,95736.06
2022-09-28T07:24:52.910Z,95733.25
2022-09-28T07:28:00.283Z,95738.31
2022-09-28T07:30:53.502Z,95749.38
2022-09-28T07:33:56.518Z,95764.94
2022-09-28T07:36:35.326Z,95759.91
2022-09-28T07:39:06.666Z,95762.47
2022-09-28T07:41:38.587Z,95757.69
2022-09-28T07:44:10.133Z,95754.66
2022-09-28T07:46:43.543Z,95736.25
2022-09-28T07:49:23.111Z,95728.97
2022-09-28T07:52:01.053Z,95722.34
2022-09-28T07:54:31.307Z,95736.84
2022-09-28T07:57:24.205Z,95743.09
2022-09-28T08:00:08.556Z,95731.53
2022-09-28T08:02:46.121Z,95736.06
2022-09-28T08:05:20.778Z,95739.06
2022-09-28T08:07:51.183Z,95734.09
2022-09-28T08:10:21.267Z,95732.38
2022-09-28T08:13:08.711Z,95730.13
2022-09-28T08:15:42.762Z,95731.63
2022-09-28T08:18:28.855Z,95725.06
2022-09-28T08:21:11.597Z,95715.78
2022-09-28T08:23:41.924Z,95719.53
2022-09-28T08:26:15.350Z,95716.38
2022-09-28T08:28:49.034Z,95715.75
2022-09-28T08:31:43.724Z,95709.41
2022-09-28T08:34:21.011Z,95721.44
2022-09-28T08:37:12.644Z,95716.97
2022-09-28T08:39:45.494Z,95712.88
2022-09-28T08:42:46.154Z,95714.94
2022-09-28T08:45:25.323Z,95716.25
2022-09-28T08:48:28.511Z,95705.91
2022-09-28T08:51:22.820Z,95699.41
2022-09-28T08:54:13.211Z,95710.19
2022-09-28T08:56:55.914Z,95709.28
2022-09-28T08:59:30.001Z,95710.34
2022-09-28T09:02:12.763Z,95711.28
2022-09-28T09:04:42.877Z,95709.69
2022-09-28T09:08:12.033Z,95714.16
2022-09-28T09:10:52.916Z,95701.97
2022-09-28T09:14:10.394Z,95696.91
2022-09-28T09:17:00.035Z,95698.44
2022-09-28T09:19:56.599Z,95703.53
2022-09-28T09:23:01.762Z,95700.91
2022-09-28T09:25:43.508Z,95694.72
2022-09-28T09:28:51.745Z,95702.56
2022-09-28T09:32:03.272Z,95693.06
2022-09-28T09:35:07.821Z,95694.84
2022-09-28T09:38:13.283Z,95693.38
2022-09-28T09:41:28.388Z,95694.78
2022-09-28T09:44:44.915Z,95692.00
2022-09-28T09:47:39.927Z,95699.84
2022-09-28T09:50:31.614Z,95702.34
2022-09-28T09:53:09.778Z,95711.53
2022-09-28T09:55:45.569Z,95705.38
2022-09-28T09:58:26.575Z,95711.97
2022-09-28T10:01:12.310Z,95714.91
2022-09-28T10:04:02.088Z,95732.19
2022-09-28T10:06:39.786Z,95756.06
2022-09-28T10:09:17.726Z,95759.75
2022-09-28T10:11:50.309Z,95758.50
2022-09-28T10:14:24.198Z,95753.78
2022-09-28T10:17:08.141Z,95754.34
2022-09-28T10:20:19.195Z,95761.00
2022-09-28T10:23:04.915Z,95754.72
2022-09-28T10:25:40.506Z,95750.44
2022-09-28T10:28:20.909Z,95755.13
2022-09-28T10:30:51.226Z,95753.19
2022-09-28T10:33:33.701Z,95754.09
2022-09-28T10:36:08.528Z,95753.97
2022-09-28T10:38:42.573Z,95760.13
2022-09-28T10:41:18.476Z,95753.16
2022-09-28T10:44:06.560Z,95771.13
2022-09-28T10:46:59.925Z,95766.47
2022-09-28T10:49:41.092Z,95774.66
2022-09-28T10:52:42.766Z,95779.53
2022-09-28T10:55:33.713Z,95786.34
2022-09-28T10:58:23.479Z,95773.03
2022-09-28T11:00:53.929Z,95785.91
2022-09-28T11:03:29.502Z,95787.44
2022-09-28T11:06:06.871Z,95790.50
2022-09-28T11:08:44.537Z,95790.81
2022-09-28T11:11:22.740Z,95788.03
2022-09-28T11:14:04.416Z,95791.00
2022-09-28T11:16:39.186Z,95791.13
2022-09-28T11:19:31.666Z,95797.66
2022-09-28T11:22:01.835Z,95807.97
2022-09-28T11:24:40.462Z,95806.59
2022-09-28T11:27:23.652Z,95803.00
2022-09-28T11:30:01.191Z,95808.69
2022-09-28T11:32:46.167Z,95809.38
2022-09-28T11:35:22.001Z,95808.75
2022-09-28T11:38:22.431Z,95809.00
2022-09-28T11:41:31.388Z,95811.44
2022-09-28T11:44:28.161Z,95820.94
2022-09-28T11:48:00.721Z,95816.56
2022-09-28T11:50:44.212Z,95816.75
2022-09-28T11:53:24.060Z,95810.03
2022-09-28T11:56:09.084Z,95812.41
2022-09-28T11:58:45.794Z,95820.34
2022-09-28T12:01:26.908Z,95824.72
2022-09-28T12:04:26.328Z,95823.78
2022-09-28T12:07:02.443Z,95834.84
2022-09-28T12:09:40.887Z,95841.31
2022-09-28T12:12:27.841Z,95833.56
2022-09-28T12:15:06.617Z,95840.28
2022-09-28T12:17:46.495Z,95840.56
2022-09-28T12:20:26.083Z,95841.72
2022-09-28T12:23:08.625Z,95842.97
2022-09-28T12:25:48.964Z,95846.25
2022-09-28T12:28:29.217Z,95847.59
2022-09-28T12:31:03.503Z,95842.56
2022-09-28T12:33:36.321Z,95842.66
2022-09-28T12:36:19.435Z,95843.38
2022-09-28T12:39:19.318Z,95845.72
2022-09-28T12:42:15.160Z,95851.38
2022-09-28T12:45:11.876Z,95847.97
2022-09-28T12:48:13.578Z,95855.19
2022-09-28T12:50:57.524Z,95860.84
2022-09-28T12:54:03.917Z,95854.56
2022-09-28T12:56:44.987Z,95859.53
2022-09-28T12:59:22.227Z,95870.53
2022-09-28T13:02:30.275Z,95871.41
2022-09-28T13:05:26.028Z,95874.59
2022-09-28T13:08:05.862Z,95873.09
2022-09-28T13:10:44.478Z,95860.97
2022-09-28T13:13:34.675Z,95863.25
2022-09-28T13:16:17.643Z,95862.06
2022-09-28T13:18:53.610Z,95868.91
2022-09-28T13:21:34.501Z,95873.72
2022-09-28T13:24:31.058Z,95863.50
2022-09-28T13:27:03.055Z,95870.72
2022-09-28T13:29:35.050Z,95873.63
2022-09-28T13:32:06.575Z,95874.63
2022-09-28T13:34:39.440Z,95875.31
2022-09-28T13:37:28.337Z,95874.41
2022-09-28T13:40:06.212Z,95882.34
2022-09-28T13:42:59.602Z,95891.00
2022-09-28T13:45:56.878Z,95891.56
2022-09-28T13:48:44.504Z,95886.13
2022-09-28T13:51:40.458Z,95881.88
2022-09-28T13:54:55.283Z,95890.00
2022-09-28T13:57:37.352Z,95892.97
2022-09-28T14:00:19.880Z,95893.94
2022-09-28T14:02:56.389Z,95898.50
2022-09-28T14:05:53.760Z,95900.75
2022-09-28T14:08:34.978Z,95904.28
2022-09-28T14:11:44.825Z,95916.72
2022-09-28T14:14:49.240Z,95914.75
2022-09-28T14:17:51.858Z,95920.16
2022-09-28T14:20:27.732Z,95924.13
2022-09-28T14:23:31.512Z,95928.63
2022-09-28T14:26:28.037Z,95936.81
2022-09-28T14:29:11.016Z,95929.28
2022-09-28T14:31:46.784Z,95917.63
2022-09-28T14:34:34.985Z,95919.22
2022-09-28T14:37:19.948Z,95925.09
2022-09-28T14:40:03.326Z,95933.63
2022-09-28T14:42:33.457Z,95945.09
2022-09-28T14:45:23.520Z,95958.56
2022-09-28T14:48:23.064Z,95965.28
2022-09-28T14:50:55.847Z,95971.94
2022-09-28T14:53:27.758Z,95964.50
2022-09-28T14:56:02.889Z,95956.97
2022-09-28T14:58:33.727Z,95952.72
2022-09-28T15:01:08.389Z,95956.72
2022-09-28T15:03:45.351Z,95953.06
2022-09-28T15:06:19.839Z,95956.16
2022-09-28T15:08:50.171Z,95962.06
2022-09-28T15:11:25.956Z,95961.22
2022-09-28T15:14:10.965Z,95962.09
2022-09-28T15:16:41.250Z,95963.78
2022-09-28T15:19:26.440Z,95961.06
2022-09-28T15:21:56.787Z,95959.44
2022-09-28T15:24:28.932Z,95951.50
2022-09-28T15:26:59.719Z,95964.06
2022-09-28T15:29:33.621Z,95953.16
2022-09-28T15:32:04.820Z,95963.81
2022-09-28T15:34:52.114Z,95961.59
2022-09-28T15:37:25.690Z,95958.72
2022-09-28T15:39:57.913Z,95964.44
2022-09-28T15:42:28.197Z,95974.00
2022-09-28T15:45:32.743Z,95980.59
2022-09-28T15:48:22.168Z,95988.94
2022-09-28T15:51:13.073Z,95986.22
2022-09-28T15:53:49.981Z,96001.09
2022-09-28T15:56:20.213Z,95992.69
2022-09-28T15:59:12.557Z,95994.97
2022-09-28T16:01:43.866Z,95996.00
2022-09-28T16:04:40.391Z,95997.63
2022-09-28T16:07:31.034Z,96002.06
2022-09-28T16:10:09.049Z,96013.94
2022-09-28T16:12:48.921Z,96015.28
2022-09-28T16:15:24.252Z,96019.88
2022-09-28T16:18:00.727Z,96023.69
2022-09-28T16:20:35.682Z,96020.31
2022-09-28T16:23:23.277Z,96023.53
2022-09-28T16:25:57.433Z,96031.09
2022-09-28T16:28:52.172Z,96045.78
2022-09-28T16:31:30.269Z,96040.81
2022-09-28T16:34:02.768Z,96040.47
2022-09-28T16:36:46.310Z,96037.81
2022-09-28T16:39:21.969Z,96041.84
2022-09-28T16:41:56.999Z,96044.69
2022-09-28T16:44:33.105Z,96047.72
2022-09-28T16:47:03.560Z,96053.31
2022-09-28T16:49:34.086Z,96067.00
2022-09-28T16:52:05.383Z,96059.19
2022-09-28T16:54:53.605Z,96068.00
2022-09-28T16:57:29.895Z,96075.38
2022-09-28T17:00:04.010Z,96069.44
2022-09-28T17:02:46.203Z,96073.28
2022-09-28T17:05:19.721Z,96088.72
2022-09-28T17:07:52.184Z,96082.16
2022-09-28T17:10:50.215Z,96074.25
2022-09-28T17:13:36.124Z,96085.88
2022-09-28T17:16:10.622Z,96092.69
2022-09-28T17:18:41.904Z,96087.69
2022-09-28T17:21:17.009Z,96088.69
2022-09-28T17:23:50.737Z,96096.97
2022-09-28T17:26:33.013Z,96100.53
2022-09-28T17:29:06.926Z,96103.31
2022-09-28T17:31:37.519Z,96108.88
2022-09-28T17:34:10.500Z,96103.84
2022-09-28T17:36:49.533Z,96107.84
2022-09-28T17:39:25.311Z,96113.19
2022-09-28T17:41:59.500Z,96121.72
2022-09-28T17:44:34.959Z,96119.53
2022-09-28T17:47:08.426Z,96123.31
2022-09-28T17:49:40.428Z,96120.50
2022-09-28T17:52:11.446Z,96124.06
2022-09-28T17:54:41.329Z,96129.13
2022-09-28T17:57:14.867Z,96130.41
2022-09-28T17:59:45.106Z,96140.78
2022-09-28T18:02:15.678Z,96139.56
2022-09-28T18:04:52.102Z,96146.09
2022-09-28T18:07:23.897Z,96146.66
2022-09-28T18:09:58.303Z,96147.44
2022-09-28T18:12:31.777Z,96148.91
2022-09-28T18:15:02.360Z,96152.72
2022-09-28T18:17:33.118Z,96145.63
2022-09-28T18:20:03.994Z,96146.63
2022-09-28T18:22:36.088Z,96156.75
2022-09-28T18:25:06.833Z,96142.66
2022-09-28T18:27:40.120Z,96150.41
2022-09-28T18:30:12.036Z,96155.72
2022-09-28T18:32:42.244Z,96153.19
2022-09-28T18:35:17.412Z,96148.84
2022-09-28T18:37:50.134Z,96156.13
2022-09-28T18:40:22.029Z,96162.97
2022-09-28T18:42:57.850Z,96162.94
2022-09-28T18:45:29.455Z,96159.44
2022-09-28T18:48:00.726Z,96165.47
2022-09-28T18:50:31.387Z,96162.50
2022-09-28T18:53:11.593Z,96168.28
2022-09-28T18:55:42.777Z,96170.50
2022-09-28T18:58:15.930Z,96165.69
2022-09-28T19:00:46.550Z,96165.66
2022-09-28T19:03:17.079Z,96166.69
2022-09-28T19:05:47.569Z,96169.47
2022-09-28T19:08:17.920Z,96167.72
2022-09-28T19:10:48.785Z,96173.25
2022-09-28T19:13:21.622Z,96170.19
2022-09-28T19:15:51.782Z,96176.97
2022-09-28T19:18:22.224Z,96172.94
2022-09-28T19:20:52.403Z,96180.25
2022-09-28T19:23:22.489Z,96176.50
2022-09-28T19:25:52.600Z,96180.28
2022-09-28T19:28:25.383Z,96174.97
2022-09-28T19:30:59.737Z,96182.78
2022-09-28T19:33:30.647Z,96174.50
2022-09-28T19:36:03.354Z,96178.78
2022-09-28T19:38:35.682Z,96174.47
2022-09-28T19:41:11.328Z,96182.81
2022-09-28T19:43:44.664Z,96174.03
2022-09-28T19:46:15.916Z,96177.81
2022-09-28T19:48:47.577Z,96177.81
2022-09-28T19:51:19.143Z,96183.88
2022-09-28T19:53:49.361Z,96176.88
2022-09-28T19:56:19.454Z,96179.16
2022-09-28T19:58:52.244Z,96181.19
2022-09-28T20:01:22.537Z,96176.69
2022-09-28T20:03:53.235Z,96189.50
2022-09-28T20:06:23.428Z,96192.28
2022-09-28T20:08:53.719Z,96188.75
2022-09-28T20:11:25.243Z,96197.06
2022-09-28T20:13:59.797Z,96192.03
2022-09-28T20:16:31.436Z,96203.09
2022-09-28T20:19:04.067Z,96208.38
2022-09-28T20:21:34.359Z,96207.41
2022-09-28T20:24:05.232Z,96205.41
2022-09-28T20:26:38.006Z,96209.16
2022-09-28T20:29:11.658Z,96211.41
2022-09-28T20:31:42.787Z,96215.19
2022-09-28T20:34:13.469Z,96214.69
2022-09-28T20:36:44.790Z,96219.47
2022-09-28T20:39:15.787Z,96221.22
2022-09-28T20:41:47.307Z,96224.25
2022-09-28T20:44:20.245Z,96223.97
2022-09-28T20:46:53.205Z,96224.72
2022-09-28T20:49:23.263Z,96227.47
2022-09-28T20:51:53.357Z,96225.47
2022-09-28T20:54:24.131Z,96227.75
2022-09-28T20:56:54.855Z,96232.75
2022-09-28T20:59:27.891Z,96228.72
2022-09-28T21:01:58.078Z,96238.06
2022-09-28T21:04:28.456Z,96244.81
2022-09-28T21:06:58.595Z,96239.78
2022-09-28T21:09:30.167Z,96242.84
2022-09-28T21:12:00.315Z,96248.38
2022-09-28T21:14:33.015Z,96241.06
2022-09-28T21:17:03.395Z,96246.56
2022-09-28T21:19:33.577Z,96247.06
2022-09-28T21:22:03.641Z,96254.88
2022-09-28T21:24:33.708Z,96252.59
2022-09-28T21:27:03.854Z,96249.34
2022-09-28T21:29:36.600Z,96257.34
2022-09-28T21:32:06.686Z,96259.13
2022-09-28T21:34:36.763Z,96260.88
2022-09-28T21:37:06.866Z,96268.66
2022-09-28T21:39:37.062Z,96263.63
2022-09-28T21:42:07.684Z,96270.66
2022-09-28T21:44:40.453Z,96262.63
2022-09-28T21:47:10.570Z,96261.88
2022-09-28T21:49:40.704Z,96270.38
2022-09-28T21:52:10.784Z,96265.13
2022-09-28T21:54:42.647Z,96271.38
2022-09-28T21:57:12.747Z,96269.63
2022-09-28T21:59:45.473Z,96279.69
2022-09-28T22:02:15.619Z,96268.41
2022-09-28T22:04:45.683Z,96266.41
2022-09-28T22:07:15.789Z,96269.66
2022-09-28T22:09:47.771Z,96273.44
2022-09-28T22:12:20.797Z,96267.41
2022-09-28T22:14:53.605Z,96272.19
2022-09-28T22:17:23.706Z,96266.13
2022-09-28T22:19:53.907Z,96272.19
2022-09-28T22:22:28.935Z,96275.94
2022-09-28T22:24:59.339Z,96277.19
2022-09-28T22:27:32.539Z,96279.94
2022-09-28T22:30:05.217Z,96278.94
2022-09-28T22:32:35.295Z,96280.91
2022-09-28T22:35:05.524Z,96282.88
2022-09-28T22:37:35.645Z,96276.09
2022-09-28T22:40:06.429Z,96273.81
2022-09-28T22:42:38.263Z,96274.31
2022-09-28T22:45:11.827Z,96283.34
2022-09-28T22:47:42.066Z,96285.88
2022-09-28T22:50:12.742Z,96282.88
2022-09-28T22:52:42.995Z,96281.56
2022-09-28T22:55:14.041Z,96290.88
2022-09-28T22:57:44.217Z,96285.63
2022-09-28T23:00:18.499Z,96283.84
2022-09-28T23:02:48.676Z,96290.13
2022-09-28T23:05:20.928Z,96285.38
2022-09-28T23:07:51.182Z,96288.91
2022-09-28T23:10:21.396Z,96285.09
2022-09-28T23:12:51.503Z,96287.31
2022-09-28T23:15:24.971Z,96286.25
2022-09-28T23:17:55.657Z,96290.22
2022-09-28T23:20:26.254Z,96297.00
2022-09-28T23:22:56.761Z,96300.22
2022-09-28T23:25:27.023Z,96295.41
2022-09-28T23:27:57.531Z,96299.16
2022-09-28T23:30:30.282Z,96295.13
2022-09-28T23:33:00.386Z,96296.81
2022-09-28T23:35:30.445Z,96297.53
2022-09-28T23:38:00.521Z,96308.53
2022-09-28T23:40:30.683Z,96301.72
2022-09-28T23:43:00.785Z,96294.66
2022-09-28T23:45:33.491Z,96302.47
2022-09-28T23:48:03.898Z,96298.94
2022-09-28T23:50:34.008Z,96305.41
2022-09-28T23:53:04.098Z,96295.16
2022-09-28T23:55:34.178Z,96291.91
2022-09-28T23:58:04.331Z,96292.19
